Time;durP1;ratioP1;P1;durP2;ratioP2;P2;SDS_P1;SDS_P2;PMS_P1;PMS_P2;Temp;Humidity;BMP_temperature;BMP_pressure;BME280_temperature;BME280_humidity;BME280_pressure;Samples;Min_cycle;Max_cycle;Signal;HPM_P1;HPM_P2
2023/08/28 00:01:42;;;;;;;8.00;7.07;;;12.40;99.90;;;;;;5113543;28;20680;-51
2023/08/28 00:04:07;;;;;;;7.67;6.93;;;12.40;99.90;;;;;;5114160;28;20175;-52
2023/08/28 00:06:33;;;;;;;10.03;7.57;;;12.50;99.90;;;;;;5114023;28;20182;-51
2023/08/28 00:08:58;;;;;;;10.40;7.60;;;12.40;99.90;;;;;;5112999;28;20182;-51
2023/08/28 00:11:24;;;;;;;8.57;7.60;;;12.40;99.90;;;;;;5113193;28;20179;-50
2023/08/28 00:13:49;;;;;;;11.73;7.53;;;12.40;99.90;;;;;;5113081;28;20181;-51
2023/08/28 00:16:15;;;;;;;8.57;7.60;;;12.40;99.90;;;;;;5113729;28;20656;-50
2023/08/28 00:18:41;;;;;;;8.83;7.37;;;12.40;99.90;;;;;;5112907;28;20195;-52
2023/08/28 00:21:07;;;;;;;11.50;7.57;;;12.40;99.90;;;;;;5113550;28;20472;-51
2023/08/28 00:23:33;;;;;;;10.20;7.17;;;12.40;99.90;;;;;;5113390;28;20327;-51
2023/08/28 00:26:00;;;;;;;9.40;7.30;;;12.30;99.90;;;;;;5113573;28;20534;-51
2023/08/28 00:28:25;;;;;;;8.40;6.90;;;12.30;99.90;;;;;;5113210;28;20236;-51
2023/08/28 00:30:51;;;;;;;8.73;7.83;;;12.30;99.90;;;;;;5113397;28;20419;-53
2023/08/28 00:33:16;;;;;;;9.80;7.40;;;12.30;99.90;;;;;;5113784;28;20183;-51
2023/08/28 00:35:42;;;;;;;9.60;7.63;;;12.40;99.90;;;;;;5113737;28;20185;-51
2023/08/28 00:38:09;;;;;;;9.10;7.30;;;12.40;99.90;;;;;;5112895;28;20179;-51
2023/08/28 00:40:41;;;;;;;7.60;6.90;;;12.40;99.90;;;;;;5112498;28;20307;-51
2023/08/28 00:43:08;;;;;;;11.00;7.13;;;12.40;99.90;;;;;;5112676;28;20417;-51
2023/08/28 00:45:38;;;;;;;9.30;7.57;;;12.30;99.90;;;;;;5112767;28;20428;-51
2023/08/28 00:48:04;;;;;;;10.30;6.90;;;12.30;99.90;;;;;;5112843;28;20432;-51
2023/08/28 00:50:30;;;;;;;8.27;7.40;;;12.30;99.90;;;;;;5112969;28;20425;-52
2023/08/28 00:52:55;;;;;;;10.93;8.50;;;12.30;99.90;;;;;;5112863;28;20421;-51
2023/08/28 00:55:21;;;;;;;9.47;8.07;;;12.20;99.90;;;;;;5112838;28;20174;-54
2023/08/28 00:57:47;;;;;;;11.30;7.83;;;12.20;99.90;;;;;;5113234;28;20186;-48
2023/08/28 01:00:13;;;;;;;9.10;8.00;;;12.20;99.90;;;;;;5112807;28;20558;-51
2023/08/28 01:02:40;;;;;;;11.40;7.70;;;12.20;99.90;;;;;;5112753;28;20182;-51
2023/08/28 01:05:05;;;;;;;14.37;8.40;;;12.20;99.90;;;;;;5113115;28;20183;-51
2023/08/28 01:07:39;;;;;;;12.57;8.40;;;12.20;99.90;;;;;;5112779;28;20806;-51
2023/08/28 01:10:19;;;;;;;9.40;7.70;;;12.20;99.90;;;;;;5112794;28;20942;-49
2023/08/28 01:13:08;;;;;;;10.33;7.40;;;12.20;99.90;;;;;;5112906;28;20474;-49
2023/08/28 01:15:36;;;;;;;10.60;8.43;;;12.20;99.90;;;;;;5112914;28;20446;-50
2023/08/28 01:18:05;;;;;;;9.47;7.50;;;12.20;99.90;;;;;;5112615;28;20912;-50
2023/08/28 01:20:33;;;;;;;10.00;8.10;;;12.20;99.90;;;;;;5112651;28;20467;-50
2023/08/28 01:23:05;;;;;;;8.17;7.27;;;12.20;99.90;;;;;;5112441;28;20479;-50
2023/08/28 01:25:32;;;;;;;10.23;7.63;;;12.20;99.90;;;;;;5114076;28;20973;-49
2023/08/28 01:27:59;;;;;;;10.70;8.00;;;12.20;99.90;;;;;;5117014;28;20465;-49
2023/08/28 01:30:25;;;;;;;9.13;7.63;;;12.20;99.90;;;;;;5116656;28;20427;-51
2023/08/28 01:32:51;;;;;;;14.23;8.20;;;12.20;99.90;;;;;;5117304;28;20427;-51
2023/08/28 01:35:25;;;;;;;15.10;8.83;;;12.20;99.90;;;;;;5116668;28;20176;-50
2023/08/28 01:37:56;;;;;;;8.77;7.30;;;12.10;99.90;;;;;;5117280;28;20444;-51
2023/08/28 01:40:43;;;;;;;16.20;8.10;;;12.10;99.90;;;;;;5117126;28;20454;-55
2023/08/28 01:43:11;;;;;;;10.50;7.77;;;12.10;99.90;;;;;;5116764;28;20885;-50
2023/08/28 01:45:38;;;;;;;11.33;8.00;;;12.10;99.90;;;;;;5116625;28;20431;-50
2023/08/28 01:48:05;;;;;;;11.00;8.60;;;12.20;99.90;;;;;;5116931;28;20440;-50
2023/08/28 01:50:30;;;;;;;19.67;8.67;;;12.20;99.90;;;;;;5116792;28;20480;-51
2023/08/28 01:52:56;;;;;;;10.30;8.00;;;12.20;99.90;;;;;;5116562;28;20897;-51
2023/08/28 01:55:44;;;;;;;8.80;7.90;;;12.20;99.90;;;;;;5116803;28;20178;-48
2023/08/28 01:58:10;;;;;;;10.10;7.67;;;12.20;99.90;;;;;;5116279;28;20271;-50
2023/08/28 02:00:36;;;;;;;11.30;8.23;;;12.20;99.90;;;;;;5116512;28;20460;-50
2023/08/28 02:03:01;;;;;;;10.33;8.70;;;12.20;99.90;;;;;;5116398;28;20635;-51
2023/08/28 02:05:27;;;;;;;13.07;8.20;;;12.20;99.90;;;;;;5116327;28;20177;-51
2023/08/28 02:07:52;;;;;;;12.97;8.10;;;12.30;99.90;;;;;;5116151;28;20239;-54
2023/08/28 02:10:18;;;;;;;12.20;8.50;;;12.30;99.90;;;;;;5116524;28;20317;-51
2023/08/28 02:12:44;;;;;;;12.40;8.47;;;12.30;99.90;;;;;;5116153;28;20183;-51
2023/08/28 02:15:09;;;;;;;9.33;7.90;;;12.40;99.90;;;;;;5116128;28;20186;-51
2023/08/28 02:17:35;;;;;;;13.37;8.70;;;12.50;99.90;;;;;;5097822;28;20229;-51
2023/08/28 02:20:01;;;;;;;12.67;8.80;;;12.50;99.90;;;;;;5116128;28;20202;-51
2023/08/28 02:22:26;;;;;;;13.23;8.17;;;12.50;99.90;;;;;;5116064;28;20585;-51
2023/08/28 02:24:52;;;;;;;11.03;8.13;;;12.50;99.90;;;;;;5116353;28;20179;-51
2023/08/28 02:27:17;;;;;;;10.47;9.03;;;12.40;99.90;;;;;;5115726;28;20576;-51
2023/08/28 02:29:43;;;;;;;10.40;8.50;;;12.50;99.90;;;;;;5115903;28;20187;-51
2023/08/28 02:32:08;;;;;;;9.07;8.13;;;12.50;99.90;;;;;;5115899;28;20184;-51
2023/08/28 02:34:34;;;;;;;11.67;8.30;;;12.50;99.90;;;;;;5115851;28;20514;-50
2023/08/28 02:37:00;;;;;;;15.50;8.30;;;12.50;99.90;;;;;;5115052;28;20179;-51
2023/08/28 02:39:25;;;;;;;10.13;7.90;;;12.50;99.90;;;;;;5115762;28;20179;-51
2023/08/28 02:41:51;;;;;;;12.03;8.47;;;12.50;99.90;;;;;;5115991;28;20253;-51
2023/08/28 02:44:16;;;;;;;9.50;8.47;;;12.50;99.90;;;;;;5115736;28;20646;-50
2023/08/28 02:46:42;;;;;;;11.00;9.80;;;12.60;99.90;;;;;;5115573;28;20544;-51
2023/08/28 02:49:07;;;;;;;14.27;8.83;;;12.50;99.90;;;;;;5115477;28;20180;-51
2023/08/28 02:51:33;;;;;;;10.90;8.73;;;12.60;99.90;;;;;;5115393;28;20190;-51
2023/08/28 02:53:59;;;;;;;11.93;8.90;;;12.70;99.90;;;;;;5115247;28;20192;-52
2023/08/28 02:56:26;;;;;;;9.93;7.60;;;12.60;99.90;;;;;;5115481;28;20179;-52
2023/08/28 02:58:53;;;;;;;12.73;8.53;;;12.70;99.90;;;;;;5115401;28;20511;-51
2023/08/28 03:01:19;;;;;;;14.50;8.77;;;12.80;99.90;;;;;;5115583;28;20468;-51
2023/08/28 03:03:47;;;;;;;9.70;7.87;;;12.80;99.90;;;;;;5115289;28;20401;-51
2023/08/28 03:06:13;;;;;;;11.53;8.90;;;12.90;99.90;;;;;;5115261;28;20409;-50
2023/08/28 03:08:38;;;;;;;12.77;8.67;;;12.80;99.90;;;;;;5115189;28;20413;-50
2023/08/28 03:11:04;;;;;;;11.00;9.00;;;12.80;99.90;;;;;;5114923;28;20465;-51
2023/08/28 03:13:30;;;;;;;10.83;8.10;;;12.90;99.90;;;;;;5115036;28;20189;-51
2023/08/28 03:15:55;;;;;;;12.13;8.57;;;12.90;99.90;;;;;;5114672;28;20180;-50
2023/08/28 03:18:21;;;;;;;10.50;8.67;;;12.90;99.90;;;;;;5114917;28;20184;-50
2023/08/28 03:20:47;;;;;;;9.53;7.50;;;12.90;99.90;;;;;;5114468;28;20420;-50
2023/08/28 03:23:13;;;;;;;9.93;8.03;;;12.90;99.90;;;;;;5114432;28;20474;-50
2023/08/28 03:25:38;;;;;;;13.60;7.90;;;12.90;99.90;;;;;;5114344;28;20181;-51
2023/08/28 03:28:07;;;;;;;13.67;8.87;;;13.00;99.90;;;;;;5114729;28;20180;-51
2023/08/28 03:30:33;;;;;;;10.60;8.00;;;13.00;99.90;;;;;;5114643;28;20328;-51
2023/08/28 03:32:59;;;;;;;12.70;8.10;;;13.00;99.90;;;;;;5114640;28;20884;-51
2023/08/28 03:35:25;;;;;;;10.10;8.00;;;13.00;99.90;;;;;;5114646;28;20503;-51
2023/08/28 03:37:51;;;;;;;14.17;7.90;;;13.00;99.90;;;;;;5114460;28;20662;-51
2023/08/28 03:40:16;;;;;;;9.43;7.20;;;13.00;99.90;;;;;;5114583;28;20466;-50
2023/08/28 03:42:42;;;;;;;11.03;8.00;;;13.00;99.90;;;;;;5114478;28;20554;-50
2023/08/28 03:45:08;;;;;;;9.20;7.93;;;13.00;99.90;;;;;;5114198;28;20182;-51
2023/08/28 03:47:33;;;;;;;9.27;7.50;;;13.00;99.90;;;;;;5114417;28;20183;-50
2023/08/28 03:49:59;;;;;;;13.43;8.50;;;12.90;99.90;;;;;;5113242;28;20203;-51
2023/08/28 03:52:24;;;;;;;9.93;7.30;;;13.00;99.90;;;;;;5114146;28;20529;-54
2023/08/28 03:54:50;;;;;;;12.20;8.10;;;13.00;99.90;;;;;;5114760;28;20275;-51
2023/08/28 03:57:16;;;;;;;11.80;7.50;;;13.00;99.90;;;;;;5113922;28;20667;-50
2023/08/28 03:59:41;;;;;;;8.60;7.60;;;13.00;99.90;;;;;;5114182;28;20186;-51
2023/08/28 04:02:07;;;;;;;13.30;7.90;;;13.00;99.90;;;;;;5113713;28;20640;-50
2023/08/28 04:04:32;;;;;;;10.10;7.77;;;13.00;99.90;;;;;;5114119;28;20184;-50
2023/08/28 04:07:01;;;;;;;14.17;8.40;;;13.00;99.90;;;;;;5114030;28;20561;-50
2023/08/28 04:09:28;;;;;;;10.77;8.17;;;13.00;99.90;;;;;;5113961;28;20179;-50
2023/08/28 04:11:53;;;;;;;9.73;7.97;;;13.00;99.90;;;;;;5114204;28;20431;-50
2023/08/28 04:14:19;;;;;;;13.53;8.77;;;13.00;99.90;;;;;;5113561;28;20405;-49
2023/08/28 04:16:44;;;;;;;10.30;9.30;;;13.00;99.90;;;;;;5113455;28;20194;-49
2023/08/28 04:19:10;;;;;;;11.67;9.10;;;12.90;99.90;;;;;;5113605;28;20190;-50
2023/08/28 04:21:36;;;;;;;11.40;8.80;;;12.90;99.90;;;;;;5113122;28;20584;-50
2023/08/28 04:24:01;;;;;;;13.33;9.93;;;12.90;99.90;;;;;;5113672;28;20264;-50
2023/08/28 04:26:27;;;;;;;14.67;10.13;;;12.90;99.90;;;;;;5113300;28;20821;-51
2023/08/28 04:28:53;;;;;;;15.90;10.70;;;12.90;99.90;;;;;;5113447;28;20281;-49
2023/08/28 04:31:19;;;;;;;14.43;10.90;;;12.90;99.90;;;;;;5113487;28;20188;-50
2023/08/28 04:33:44;;;;;;;18.90;10.60;;;12.90;99.90;;;;;;5113401;28;20438;-50
2023/08/28 04:36:10;;;;;;;13.20;11.10;;;12.90;99.90;;;;;;5113188;28;20180;-51
2023/08/28 04:38:35;;;;;;;19.30;11.50;;;13.00;99.90;;;;;;5113015;28;20186;-51
2023/08/28 04:41:01;;;;;;;15.77;11.77;;;12.90;99.90;;;;;;5113368;28;20300;-51
2023/08/28 04:43:27;;;;;;;12.53;10.67;;;12.90;99.90;;;;;;5113320;28;20184;-51
2023/08/28 04:45:52;;;;;;;16.20;12.10;;;13.00;99.90;;;;;;5113441;28;20644;-51
2023/08/28 04:48:19;;;;;;;17.33;13.30;;;12.90;99.90;;;;;;5113293;28;20191;-52
2023/08/28 04:50:44;;;;;;;17.83;13.27;;;12.90;99.90;;;;;;5113031;28;20178;-50
2023/08/28 04:53:10;;;;;;;14.10;12.50;;;12.90;99.90;;;;;;5112756;28;20413;-50
2023/08/28 04:55:38;;;;;;;14.70;12.90;;;12.90;99.90;;;;;;5113059;28;20183;-51
2023/08/28 04:58:03;;;;;;;15.70;12.60;;;12.90;99.90;;;;;;5112956;28;20270;-51
2023/08/28 05:00:29;;;;;;;19.17;12.73;;;12.90;99.90;;;;;;5112454;28;20594;-51
2023/08/28 05:02:54;;;;;;;16.07;12.37;;;12.90;99.90;;;;;;5113179;28;20224;-50
2023/08/28 05:05:20;;;;;;;16.87;13.60;;;12.90;99.90;;;;;;5112942;28;20176;-50
2023/08/28 05:07:46;;;;;;;19.03;14.60;;;12.90;99.90;;;;;;5113016;28;20180;-51
2023/08/28 05:10:11;;;;;;;18.40;14.63;;;12.90;99.90;;;;;;5094574;28;20240;-49
2023/08/28 05:12:37;;;;;;;16.20;13.47;;;12.90;99.90;;;;;;5112864;28;20314;-50
2023/08/28 05:15:02;;;;;;;23.63;14.40;;;13.00;99.90;;;;;;5112714;28;20519;-50
2023/08/28 05:17:28;;;;;;;18.03;13.20;;;13.00;99.90;;;;;;5112615;28;20181;-50
2023/08/28 05:19:54;;;;;;;23.30;13.83;;;13.00;99.90;;;;;;5112820;28;20186;-50
2023/08/28 05:22:19;;;;;;;18.80;12.80;;;13.10;99.90;;;;;;5112317;28;20229;-50
2023/08/28 05:24:45;;;;;;;19.50;13.63;;;13.20;99.90;;;;;;5112838;28;20179;-51
2023/08/28 05:27:11;;;;;;;14.70;12.60;;;13.20;99.90;;;;;;5112811;28;20505;-50
2023/08/28 05:29:36;;;;;;;19.40;12.23;;;13.30;99.90;;;;;;5112802;28;20179;-51
2023/08/28 05:32:02;;;;;;;15.77;12.03;;;13.30;99.90;;;;;;5112462;28;20195;-51
2023/08/28 05:34:28;;;;;;;17.10;12.17;;;13.30;99.90;;;;;;5112677;28;20188;-52
2023/08/28 05:36:53;;;;;;;20.10;13.20;;;13.30;99.90;;;;;;5112854;28;20632;-51
2023/08/28 05:39:19;;;;;;;18.07;12.93;;;13.40;99.90;;;;;;5112600;28;20253;-51
2023/08/28 05:41:44;;;;;;;14.30;11.97;;;13.40;99.90;;;;;;5112266;28;20273;-51
2023/08/28 05:44:10;;;;;;;14.43;11.53;;;13.50;99.90;;;;;;5112229;28;20184;-52
2023/08/28 05:46:35;;;;;;;16.20;10.23;;;13.50;99.90;;;;;;5112169;28;20206;-53
2023/08/28 05:49:02;;;;;;;15.50;11.40;;;13.50;99.90;;;;;;5112271;28;20190;-50
2023/08/28 05:51:27;;;;;;;21.13;10.30;;;13.60;99.90;;;;;;5112426;28;20222;-52
2023/08/28 05:53:53;;;;;;;14.30;10.20;;;13.60;99.90;;;;;;5112380;28;20452;-51
2023/08/28 05:56:18;;;;;;;11.87;9.20;;;13.70;99.90;;;;;;5112442;28;20184;-51
2023/08/28 05:58:44;;;;;;;11.57;8.83;;;13.80;99.90;;;;;;5112142;28;20656;-51
2023/08/28 06:01:09;;;;;;;16.17;8.57;;;13.90;99.90;;;;;;5112210;28;20661;-52
2023/08/28 06:03:35;;;;;;;9.47;6.60;;;14.10;99.90;;;;;;5112751;28;20184;-51
2023/08/28 06:06:01;;;;;;;12.20;7.10;;;14.30;99.90;;;;;;5112362;28;20185;-51
2023/08/28 06:08:26;;;;;;;7.33;6.30;;;14.50;13.90;;;;;;5112860;28;20223;-52
2023/08/28 06:10:52;;;;;;;6.00;5.40;;;14.70;1.00;;;;;;5112249;28;20665;-52
2023/08/28 06:13:17;;;;;;;9.47;5.20;;;14.80;1.00;;;;;;5115137;28;20252;-53
2023/08/28 06:15:43;;;;;;;5.67;4.87;;;15.00;1.00;;;;;;5115946;28;20220;-52
2023/08/28 06:18:08;;;;;;;7.83;4.23;;;15.20;99.90;;;;;;5116172;28;20192;-52
2023/08/28 06:20:35;;;;;;;7.10;3.73;;;15.30;99.90;;;;;;5116207;28;20281;-52
2023/08/28 06:23:01;;;;;;;6.73;4.07;;;15.50;99.90;;;;;;5115658;28;20658;-53
2023/08/28 06:25:27;;;;;;;8.23;4.07;;;15.60;1.00;;;;;;5116169;28;20504;-53
2023/08/28 06:27:53;;;;;;;7.77;3.63;;;15.80;1.00;;;;;;5116295;28;20645;-52
2023/08/28 06:30:19;;;;;;;4.53;3.13;;;15.90;99.90;;;;;;5115852;28;20426;-53
2023/08/28 06:32:45;;;;;;;4.70;3.10;;;16.20;1.00;;;;;;5115623;28;20194;-53
2023/08/28 06:35:11;;;;;;;5.50;2.93;;;16.40;73.80;;;;;;5115349;28;20422;-53
2023/08/28 06:37:37;;;;;;;6.87;3.20;;;16.60;1.00;;;;;;5115680;28;20220;-52
2023/08/28 06:40:03;;;;;;;3.50;2.40;;;16.80;99.90;;;;;;5115470;28;20236;-53
2023/08/28 06:42:29;;;;;;;3.57;2.57;;;16.90;99.90;;;;;;5115701;28;20188;-52
2023/08/28 06:44:55;;;;;;;4.43;2.20;;;17.00;99.90;;;;;;5116122;28;20417;-52
2023/08/28 06:47:21;;;;;;;7.60;2.50;;;17.10;99.90;;;;;;5115052;28;20647;-53
2023/08/28 06:49:46;;;;;;;5.87;2.33;;;17.30;99.90;;;;;;5115417;28;20252;-53
2023/08/28 06:52:12;;;;;;;9.67;2.17;;;17.20;99.90;;;;;;5115356;28;20193;-53
2023/08/28 06:54:38;;;;;;;3.83;2.10;;;17.40;99.90;;;;;;5115261;28;20206;-53
2023/08/28 06:57:03;;;;;;;5.83;1.90;;;17.60;99.90;;;;;;5115625;28;20617;-53
2023/08/28 06:59:29;;;;;;;4.93;2.00;;;17.90;99.90;;;;;;5115168;28;20286;-55
2023/08/28 07:01:55;;;;;;;4.17;1.93;;;18.00;49.10;;;;;;5115514;28;20224;-54
2023/08/28 07:04:20;;;;;;;5.93;2.10;;;18.10;2.20;;;;;;5115138;28;20196;-54
2023/08/28 07:06:46;;;;;;;5.40;1.77;;;18.30;18.30;;;;;;5115101;28;20646;-52
2023/08/28 07:09:11;;;;;;;7.50;2.23;;;18.40;1.00;;;;;;5114795;28;20180;-52
2023/08/28 07:11:37;;;;;;;3.87;1.80;;;18.40;21.20;;;;;;5115108;28;20212;-54
2023/08/28 07:14:05;;;;;;;2.50;1.80;;;18.50;1.00;;;;;;5114917;28;20580;-54
2023/08/28 07:16:31;;;;;;;5.57;2.17;;;18.50;1.00;;;;;;5115219;28;20195;-53
2023/08/28 07:18:57;;;;;;;3.50;2.60;;;18.50;1.00;;;;;;5114808;28;20896;-53
2023/08/28 07:21:22;;;;;;;7.63;2.33;;;18.60;1.00;;;;;;5114525;28;20221;-53
2023/08/28 07:23:50;;;;;;;3.17;2.10;;;18.60;1.00;;;;;;5114498;28;20826;-54
2023/08/28 07:26:16;;;;;;;6.00;2.10;;;18.80;1.00;;;;;;5114863;28;20182;-53
2023/08/28 07:28:42;;;;;;;5.87;2.30;;;19.00;1.00;;;;;;5114784;28;20847;-55
2023/08/28 07:31:07;;;;;;;7.20;2.00;;;19.30;1.00;;;;;;5114623;28;20443;-54
2023/08/28 07:33:33;;;;;;;2.23;1.70;;;19.60;1.00;;;;;;5114246;28;20185;-53
2023/08/28 07:35:58;;;;;;;7.63;1.90;;;20.00;1.00;;;;;;5114752;28;20272;-54
2023/08/28 07:38:24;;;;;;;3.50;2.17;;;20.20;1.00;;;;;;5114577;28;20203;-54
2023/08/28 07:40:50;;;;;;;7.53;2.17;;;20.10;1.00;;;;;;5111553;28;20217;-53
2023/08/28 07:43:15;;;;;;;5.77;2.30;;;20.00;1.00;;;;;;5113430;28;20191;-53
2023/08/28 07:45:41;;;;;;;2.67;1.90;;;20.20;1.00;;;;;;5114175;28;20620;-53
2023/08/28 07:48:07;;;;;;;6.13;1.80;;;20.30;1.00;;;;;;5114310;28;20181;-54
2023/08/28 07:50:33;;;;;;;3.83;1.90;;;20.30;1.00;;;;;;5114142;28;20218;-53
2023/08/28 07:52:59;;;;;;;1.80;1.70;;;20.50;1.00;;;;;;5113930;28;20416;-55
2023/08/28 07:55:24;;;;;;;6.23;1.83;;;20.50;1.00;;;;;;5114273;28;20179;-55
2023/08/28 07:57:50;;;;;;;1.70;1.23;;;20.40;1.00;;;;;;5113693;28;20561;-51
2023/08/28 08:00:18;;;;;;;5.53;1.70;;;20.60;1.00;;;;;;5113704;28;20212;-52
2023/08/28 08:02:44;;;;;;;6.67;1.80;;;20.40;1.00;;;;;;5114232;28;20241;-53
2023/08/28 08:05:10;;;;;;;4.50;1.40;;;20.40;1.00;;;;;;5114013;28;20418;-55
2023/08/28 08:07:39;;;;;;;3.70;1.20;;;20.00;1.00;;;;;;5114309;28;20167;-54
2023/08/28 08:10:06;;;;;;;4.27;1.80;;;19.80;1.00;;;;;;5114038;28;20912;-54
2023/08/28 08:12:32;;;;;;;1.80;1.70;;;19.80;1.00;;;;;;5113908;28;20455;-55
2023/08/28 08:14:58;;;;;;;6.03;1.80;;;19.50;1.00;;;;;;5113515;28;20456;-52
2023/08/28 08:17:23;;;;;;;4.10;1.60;;;19.60;1.00;;;;;;5113000;28;20919;-54
2023/08/28 08:19:49;;;;;;;6.73;1.60;;;19.90;1.00;;;;;;5113322;28;20684;-53
2023/08/28 08:22:14;;;;;;;5.30;1.50;;;20.10;1.00;;;;;;5113259;28;20235;-52
2023/08/28 08:24:40;;;;;;;2.37;1.50;;;20.40;1.00;;;;;;5113701;28;20687;-52
2023/08/28 08:27:06;;;;;;;2.60;1.70;;;20.20;1.00;;;;;;5113654;28;20199;-50
2023/08/28 08:29:31;;;;;;;3.30;1.87;;;19.70;1.00;;;;;;5113365;28;20257;-52
2023/08/28 08:31:57;;;;;;;5.17;2.00;;;19.20;1.00;;;;;;5113227;28;20210;-51
2023/08/28 08:34:22;;;;;;;5.53;1.60;;;19.00;1.00;;;;;;5112968;28;20189;-53
2023/08/28 08:36:48;;;;;;;4.30;1.77;;;18.80;1.00;;;;;;5113341;28;20182;-50
2023/08/28 08:39:13;;;;;;;4.33;1.50;;;18.80;1.00;;;;;;5112496;28;20189;-53
2023/08/28 08:41:39;;;;;;;3.13;2.00;;;18.80;1.00;;;;;;5112001;28;20736;-51
2023/08/28 08:44:05;;;;;;;6.27;1.73;;;18.80;1.00;;;;;;5112160;28;20184;-52
2023/08/28 08:46:31;;;;;;;2.80;1.73;;;18.80;1.00;;;;;;5111973;28;20420;-51
2023/08/28 08:49:00;;;;;;;3.20;1.60;;;18.90;1.00;;;;;;5112107;28;20465;-52
2023/08/28 08:51:29;;;;;;;4.43;1.57;;;19.60;1.00;;;;;;5111870;28;20423;-52
2023/08/28 08:54:20;;;;;;;4.90;2.13;;;20.40;1.00;;;;;;5111794;28;20458;-51
2023/08/28 08:56:50;;;;;;;3.13;1.80;;;20.50;1.00;;;;;;5112921;28;20395;-54
2023/08/28 08:59:17;;;;;;;5.83;1.63;;;20.70;1.00;;;;;;5112405;28;20740;-52
2023/08/28 09:01:43;;;;;;;6.40;2.40;;;20.60;1.00;;;;;;5112713;28;20857;-53
2023/08/28 09:04:09;;;;;;;2.50;1.90;;;20.30;1.00;;;;;;5112554;28;20418;-50
2023/08/28 09:06:37;;;;;;;4.40;2.40;;;20.20;1.00;;;;;;5112898;28;20741;-52
2023/08/28 09:09:05;;;;;;;4.23;2.07;;;21.00;1.00;;;;;;5112979;28;20175;-52
2023/08/28 09:11:31;;;;;;;4.30;2.20;;;21.80;1.00;;;;;;5094442;28;20433;-54
2023/08/28 09:13:57;;;;;;;2.87;2.00;;;22.30;1.00;;;;;;5113324;28;20413;-54
2023/08/28 09:16:23;;;;;;;6.30;1.70;;;22.30;1.00;;;;;;5112840;28;20440;-53
2023/08/28 09:18:49;;;;;;;7.23;2.00;;;22.00;1.00;;;;;;5112575;28;20188;-54
2023/08/28 09:21:15;;;;;;;4.47;2.17;;;21.60;1.00;;;;;;5094145;28;20927;-54
2023/08/28 09:23:46;;;;;;;3.80;2.30;;;21.40;1.00;;;;;;5112909;28;20442;-54
2023/08/28 09:26:22;;;;;;;4.63;1.87;;;21.40;1.00;;;;;;5112878;28;20268;-54
2023/08/28 09:29:02;;;;;;;2.70;1.60;;;21.70;1.00;;;;;;5112900;28;20467;-54
2023/08/28 09:31:36;;;;;;;4.60;2.90;;;21.90;1.00;;;;;;5112332;28;20426;-53
2023/08/28 09:34:03;;;;;;;5.70;3.43;;;21.80;1.00;;;;;;5112690;28;20434;-53
2023/08/28 09:36:32;;;;;;;5.87;2.30;;;21.70;1.00;;;;;;5112707;28;20430;-55
2023/08/28 09:39:03;;;;;;;3.87;2.37;;;21.70;1.00;;;;;;5112213;28;21029;-54
2023/08/28 09:41:55;;;;;;;6.00;2.13;;;21.50;1.00;;;;;;5112368;28;20519;-57
2023/08/28 09:44:25;;;;;;;2.70;1.60;;;21.30;1.00;;;;;;5108242;28;20449;-53
2023/08/28 09:46:51;;;;;;;3.70;1.60;;;20.90;1.00;;;;;;5112904;28;20414;-54
2023/08/28 09:49:16;;;;;;;3.70;1.57;;;20.60;1.00;;;;;;5116413;28;20429;-53
2023/08/28 09:51:48;;;;;;;3.73;1.60;;;20.50;1.00;;;;;;5116595;28;20183;-53
2023/08/28 09:54:15;;;;;;;2.37;1.90;;;20.70;1.00;;;;;;5097934;28;20210;-54
2023/08/28 09:56:42;;;;;;;3.07;1.20;;;20.90;1.00;;;;;;5097830;28;20421;-53
2023/08/28 09:59:10;;;;;;;2.87;1.30;;;21.10;1.00;;;;;;5097726;28;20431;-52
2023/08/28 10:01:37;;;;;;;4.37;1.43;;;21.00;1.00;;;;;;5116176;28;20466;-54
2023/08/28 10:04:09;;;;;;;1.43;1.30;;;20.60;1.00;;;;;;5097644;28;20844;-56
2023/08/28 10:06:40;;;;;;;2.87;1.23;;;20.40;1.00;;;;;;5116472;28;20406;-55
2023/08/28 10:09:12;;;;;;;3.50;1.33;;;20.40;1.00;;;;;;5115993;28;20409;-53
2023/08/28 10:11:39;;;;;;;2.80;1.47;;;20.70;1.00;;;;;;5114945;28;20410;-53
2023/08/28 10:14:06;;;;;;;4.60;1.43;;;21.50;1.00;;;;;;5116415;28;20762;-54
2023/08/28 10:16:38;;;;;;;6.87;1.60;;;21.90;1.00;;;;;;5116208;28;20763;-55
2023/08/28 10:19:19;;;;;;;2.03;1.20;;;22.10;1.00;;;;;;5116159;28;20406;-51
2023/08/28 10:21:46;;;;;;;4.90;1.30;;;22.20;1.00;;;;;;5115584;28;20489;-54
2023/08/28 10:24:15;;;;;;;1.83;1.27;;;22.20;1.00;;;;;;5114727;28;20475;-54
2023/08/28 10:26:42;;;;;;;2.00;1.10;;;21.90;1.00;;;;;;5116805;28;20517;-54
2023/08/28 10:29:09;;;;;;;3.63;1.57;;;21.90;1.00;;;;;;5098840;28;20414;-55
2023/08/28 10:31:37;;;;;;;3.67;1.20;;;22.00;1.00;;;;;;5098648;28;20806;-53
2023/08/28 10:34:04;;;;;;;2.40;1.10;;;21.90;1.00;;;;;;5116933;28;20418;-55
2023/08/28 10:36:31;;;;;;;4.77;2.07;;;21.80;1.00;;;;;;5116672;28;20953;-55
2023/08/28 10:39:00;;;;;;;9.23;5.80;;;21.70;1.00;;;;;;5116400;28;20459;-55
2023/08/28 10:41:27;;;;;;;2.60;1.20;;;21.50;1.00;;;;;;5116600;28;20552;-56
2023/08/28 10:43:53;;;;;;;2.07;1.40;;;21.00;1.00;;;;;;5116713;28;20422;-52
2023/08/28 10:46:20;;;;;;;1.37;1.20;;;20.60;1.00;;;;;;5098010;28;20439;-52
2023/08/28 10:48:46;;;;;;;3.60;1.23;;;20.40;1.00;;;;;;5115857;28;20410;-51
2023/08/28 10:51:12;;;;;;;1.97;1.40;;;20.30;1.00;;;;;;5115609;28;20905;-51
2023/08/28 10:53:39;;;;;;;2.13;1.23;;;20.00;1.00;;;;;;5115390;28;20176;-51
2023/08/28 10:56:06;;;;;;;3.97;1.10;;;19.60;1.00;;;;;;5114608;28;20419;-52
2023/08/28 10:58:36;;;;;;;1.53;1.00;;;19.30;1.00;;;;;;5114608;28;20416;-53
2023/08/28 11:01:16;;;;;;;1.17;1.00;;;19.00;1.00;;;;;;5114840;28;20444;-52
2023/08/28 11:03:51;;;;;;;1.20;1.00;;;18.70;1.00;;;;;;5115190;28;20520;-50
2023/08/28 11:06:39;;;;;;;2.20;1.00;;;18.70;1.00;;;;;;5115106;28;20417;-50
2023/08/28 11:09:29;;;;;;;1.90;0.90;;;19.20;1.00;;;;;;5115424;28;20426;-50
2023/08/28 11:11:57;;;;;;;3.40;1.03;;;19.60;1.00;;;;;;5115010;28;20429;-51
2023/08/28 11:14:32;;;;;;;1.03;0.90;;;19.60;1.00;;;;;;5115255;28;20425;-51
2023/08/28 11:17:09;;;;;;;2.30;0.90;;;19.70;1.00;;;;;;5115439;28;20406;-51
2023/08/28 11:19:55;;;;;;;2.90;1.10;;;19.60;1.00;;;;;;5114912;28;20901;-53
2023/08/28 11:22:36;;;;;;;2.23;1.13;;;19.60;1.00;;;;;;5113593;28;20500;-50
2023/08/28 11:25:07;;;;;;;5.70;1.20;;;19.50;1.00;;;;;;5114481;28;20485;-52
2023/08/28 11:27:43;;;;;;;3.67;1.20;;;19.60;1.00;;;;;;5114992;28;20401;-53
2023/08/28 11:30:10;;;;;;;2.10;1.20;;;20.00;1.00;;;;;;5114317;28;20417;-51
2023/08/28 11:32:40;;;;;;;0.97;0.87;;;20.60;1.00;;;;;;5114379;28;20439;-52
2023/08/28 11:35:13;;;;;;;2.07;1.23;;;21.00;1.00;;;;;;5114074;28;20417;-52
2023/08/28 11:37:44;;;;;;;1.27;1.00;;;21.40;1.00;;;;;;5114600;28;20411;-52
2023/08/28 11:40:10;;;;;;;1.80;1.10;;;21.80;1.00;;;;;;5113554;28;20442;-51
2023/08/28 11:42:37;;;;;;;1.40;1.10;;;22.80;1.00;;;;;;5114393;28;20460;-51
2023/08/28 11:45:04;;;;;;;1.97;1.07;;;23.70;1.00;;;;;;5113836;28;20180;-52
2023/08/28 11:47:32;;;;;;;1.63;0.90;;;24.30;1.00;;;;;;5114144;28;20418;-51
2023/08/28 11:49:59;;;;;;;1.83;0.90;;;24.60;1.00;;;;;;5114158;28;20902;-51
2023/08/28 11:52:25;;;;;;;2.40;1.00;;;24.40;1.00;;;;;;5114285;28;20456;-50
2023/08/28 11:54:52;;;;;;;2.03;0.97;;;24.60;1.00;;;;;;5113814;28;20487;-50
2023/08/28 11:57:20;;;;;;;1.90;0.90;;;24.40;1.00;;;;;;5114140;28;20440;-51
2023/08/28 11:59:47;;;;;;;2.37;1.20;;;24.20;1.00;;;;;;5114197;28;20425;-50
2023/08/28 12:02:14;;;;;;;1.10;0.90;;;24.30;1.00;;;;;;5113747;28;20493;-49
2023/08/28 12:04:41;;;;;;;3.43;1.20;;;24.70;1.00;;;;;;5113723;28;20454;-51
2023/08/28 12:07:20;;;;;;;1.17;1.07;;;25.30;1.00;;;;;;5113783;28;20415;-49
2023/08/28 12:09:48;;;;;;;3.23;1.00;;;25.60;1.00;;;;;;5112853;28;20510;-51
2023/08/28 12:12:15;;;;;;;1.93;1.00;;;25.70;1.00;;;;;;5113743;28;20447;-51
2023/08/28 12:14:48;;;;;;;4.07;1.20;;;26.10;1.00;;;;;;5113840;28;20415;-51
2023/08/28 12:17:14;;;;;;;2.00;1.00;;;26.00;1.00;;;;;;5113722;28;20411;-50
2023/08/28 12:19:41;;;;;;;6.30;1.50;;;25.60;1.00;;;;;;5113631;28;20419;-51
2023/08/28 12:22:08;;;;;;;3.03;1.33;;;25.40;1.00;;;;;;5094704;28;20505;-51
2023/08/28 12:24:39;;;;;;;1.93;1.20;;;24.90;1.00;;;;;;5113845;28;20406;-51
2023/08/28 12:27:05;;;;;;;7.27;1.90;;;24.70;1.00;;;;;;5113421;28;20912;-52
2023/08/28 12:29:33;;;;;;;8.67;1.40;;;24.00;1.00;;;;;;5113829;28;20406;-51
2023/08/28 12:31:58;;;;;;;1.43;1.30;;;23.60;1.00;;;;;;5113498;28;20184;-49
2023/08/28 12:34:28;;;;;;;2.13;1.40;;;23.90;1.00;;;;;;5113432;28;20419;-50
2023/08/28 12:37:11;;;;;;;1.20;1.10;;;23.90;1.00;;;;;;5113258;28;20172;-50
2023/08/28 12:39:50;;;;;;;2.53;1.30;;;23.00;1.00;;;;;;5113295;28;20422;-49
2023/08/28 12:42:21;;;;;;;5.37;1.40;;;22.70;1.00;;;;;;5113074;28;20922;-48
2023/08/28 12:44:47;;;;;;;5.57;1.30;;;22.10;1.00;;;;;;5112795;28;20446;-49
2023/08/28 12:47:20;;;;;;;1.13;1.00;;;21.70;1.00;;;;;;5113168;28;20946;-49